Terminal Aerodrome Forecast
Issued by NWS Topeka, KS

Home | Current Version | Previous Version | Text Only | Print | Product List | Glossary On
Versions: 1 2 3 4 5 6 7 8 9 10 11 12 13 14
614
FTUS43 KTOP 260020 AAA
TAFTOP
TAF AMD
KTOP 260020Z 2600/2624 01006KT P6SM -SHRA VCTS BKN050CB
      TEMPO 2600/2604 4SM TSRA BKN015CB
     FM260400 35007KT 6SM -SHRA VCTS SCT025CB
      TEMPO 2606/2610 4SM TSRA OVC040CB
     FM261000 35007KT 6SM -SHRA VCTS SCT025CB
     FM261500 36007KT 4SM -SHRA VCTS SCT008 SCT015CB=

USA.gov is the U.S. government's official web portal to all federal, state and local government web resources and services.